Time;durP1;ratioP1;P1;durP2;ratioP2;P2;SDS_P1;SDS_P2;PMS_P1;PMS_P2;Temp;Humidity;BMP_temperature;BMP_pressure;BME280_temperature;BME280_humidity;BME280_pressure;Samples;Min_cycle;Max_cycle;Signal;HPM_P1;HPM_P2
2021/01/03 00:00:14;;;;;;;16.75;5.85;;;6.30;90.30;;;;;;5031880;28;20025;-75
2021/01/03 00:02:41;;;;;;;25.45;7.03;;;6.30;90.30;;;;;;5013923;28;20022;-76
2021/01/03 00:05:07;;;;;;;21.75;6.03;;;6.30;90.20;;;;;;5031886;28;20060;-75
2021/01/03 00:07:32;;;;;;;18.88;5.85;;;6.30;90.20;;;;;;5031992;28;20462;-76
2021/01/03 00:09:58;;;;;;;20.27;6.82;;;6.40;90.20;;;;;;5031644;28;20063;-76
2021/01/03 00:12:24;;;;;;;18.90;5.55;;;6.40;90.20;;;;;;5032189;28;20104;-75
2021/01/03 00:14:49;;;;;;;18.33;5.97;;;6.40;90.20;;;;;;5030993;28;20021;-75
2021/01/03 00:17:15;;;;;;;17.85;5.85;;;6.40;90.20;;;;;;5031923;28;20018;-75
2021/01/03 00:19:41;;;;;;;23.15;5.88;;;6.30;90.20;;;;;;5031070;28;20021;-76
2021/01/03 00:22:06;;;;;;;12.55;5.10;;;6.30;90.30;;;;;;5013962;28;20111;-75
2021/01/03 00:24:32;;;;;;;18.60;7.13;;;6.20;90.60;;;;;;5032104;28;20104;-75
2021/01/03 00:26:57;;;;;;;19.92;5.68;;;6.20;90.30;;;;;;5030898;28;20029;-76
2021/01/03 00:29:23;;;;;;;17.65;5.88;;;6.20;90.30;;;;;;5032146;28;20409;-75
2021/01/03 00:31:50;;;;;;;15.85;6.25;;;6.20;90.30;;;;;;5013710;28;20056;-75
2021/01/03 00:34:18;;;;;;;13.35;4.90;;;6.30;90.30;;;;;;5014199;28;20056;-75
2021/01/03 00:36:43;;;;;;;20.02;6.20;;;6.30;90.20;;;;;;5014631;28;20021;-75
2021/01/03 00:39:09;;;;;;;18.73;6.30;;;6.40;90.20;;;;;;5033878;28;20018;-75
2021/01/03 00:41:36;;;;;;;18.60;5.63;;;6.30;90.10;;;;;;5013918;28;20022;-75
2021/01/03 00:44:03;;;;;;;20.52;6.40;;;6.30;90.10;;;;;;5032420;28;20463;-75
2021/01/03 00:46:29;;;;;;;16.63;5.95;;;6.30;90.20;;;;;;5035453;28;20485;-76
2021/01/03 00:48:54;;;;;;;18.60;5.85;;;6.30;90.20;;;;;;5034757;28;20033;-76
2021/01/03 00:51:20;;;;;;;18.05;5.90;;;6.20;90.20;;;;;;5017875;28;20064;-75
2021/01/03 00:53:46;;;;;;;24.83;6.57;;;6.20;90.20;;;;;;5016954;28;20056;-76
2021/01/03 00:56:11;;;;;;;16.50;6.07;;;6.30;90.20;;;;;;5017592;28;20017;-75
2021/01/03 00:58:37;;;;;;;20.60;6.30;;;6.30;90.10;;;;;;5017479;28;20470;-75
2021/01/03 01:01:04;;;;;;;18.63;5.35;;;6.30;90.10;;;;;;5034591;28;20104;-75
2021/01/03 01:03:29;;;;;;;20.48;6.05;;;6.30;90.10;;;;;;5035114;28;20017;-76
2021/01/03 01:05:55;;;;;;;21.17;6.32;;;6.30;90.10;;;;;;5034499;28;20018;-75
2021/01/03 01:08:23;;;;;;;21.90;6.85;;;6.30;90.20;;;;;;5035031;28;20079;-75
2021/01/03 01:10:49;;;;;;;18.05;5.57;;;6.20;90.20;;;;;;5016671;28;20167;-76
2021/01/03 01:13:15;;;;;;;20.83;6.25;;;6.20;90.50;;;;;;5017111;28;20583;-75
2021/01/03 01:15:40;;;;;;;19.65;5.88;;;6.20;90.20;;;;;;5017118;28;20025;-74
2021/01/03 01:18:06;;;;;;;15.77;5.13;;;6.20;90.20;;;;;;5034519;28;20334;-75
2021/01/03 01:20:33;;;;;;;19.48;6.05;;;6.20;90.30;;;;;;5034745;28;20450;-74
2021/01/03 01:22:59;;;;;;;17.88;5.95;;;6.20;90.20;;;;;;5034518;28;20021;-75
2021/01/03 01:25:28;;;;;;;16.80;5.20;;;6.20;90.10;;;;;;5034585;28;20370;-75
2021/01/03 01:27:55;;;;;;;16.85;4.50;;;6.20;90.10;;;;;;5033920;28;20029;-75
2021/01/03 01:30:22;;;;;;;15.45;5.30;;;6.30;90.10;;;;;;5034464;28;20021;-75
2021/01/03 01:32:48;;;;;;;12.13;4.85;;;6.30;90.10;;;;;;5016193;28;20017;-75
2021/01/03 01:35:21;;;;;;;17.33;5.53;;;6.30;90.10;;;;;;5016622;28;20117;-75
2021/01/03 01:37:47;;;;;;;12.25;5.20;;;6.30;90.10;;;;;;5033752;28;20100;-75
2021/01/03 01:40:17;;;;;;;13.85;4.95;;;6.30;90.10;;;;;;5034499;28;20014;-75
2021/01/03 01:42:44;;;;;;;14.68;5.68;;;6.30;90.00;;;;;;5034433;28;20018;-74
2021/01/03 01:45:12;;;;;;;18.40;5.15;;;6.30;90.00;;;;;;5034205;28;20041;-75
2021/01/03 01:47:40;;;;;;;18.05;5.68;;;6.30;90.10;;;;;;5016337;28;20083;-75
2021/01/03 01:50:09;;;;;;;22.40;6.05;;;6.20;90.10;;;;;;5033415;28;20047;-75
2021/01/03 01:52:42;;;;;;;10.45;4.53;;;6.20;90.10;;;;;;5016481;28;20017;-75
2021/01/03 01:55:15;;;;;;;12.82;5.15;;;6.20;90.20;;;;;;5032852;28;20091;-75
2021/01/03 01:57:55;;;;;;;21.50;6.07;;;6.20;90.20;;;;;;5033783;28;20025;-74
2021/01/03 02:00:25;;;;;;;23.48;5.82;;;6.20;90.20;;;;;;5016158;28;20014;-75
2021/01/03 02:03:04;;;;;;;15.90;5.65;;;6.20;90.20;;;;;;5033414;28;20147;-75
2021/01/03 02:05:43;;;;;;;14.25;4.75;;;6.30;90.10;;;;;;5033879;28;20025;-75
2021/01/03 02:08:36;;;;;;;15.52;5.07;;;6.30;90.10;;;;;;5015424;28;20033;-75
2021/01/03 02:11:05;;;;;;;16.95;5.25;;;6.30;90.00;;;;;;5015574;28;20045;-75
2021/01/03 02:13:38;;;;;;;13.48;5.43;;;6.30;90.10;;;;;;5033939;28;20014;-75
2021/01/03 02:16:11;;;;;;;12.95;4.75;;;6.20;90.00;;;;;;5034357;28;20030;-75
2021/01/03 02:18:36;;;;;;;16.95;5.78;;;6.30;90.10;;;;;;5036183;28;20451;-75
2021/01/03 02:21:20;;;;;;;11.35;4.15;;;6.20;90.10;;;;;;5036248;28;20028;-75
2021/01/03 02:24:10;;;;;;;16.25;5.50;;;6.20;90.10;;;;;;5020769;28;20021;-75
2021/01/03 02:26:40;;;;;;;17.52;4.85;;;6.20;90.10;;;;;;5037700;28;20505;-75
2021/01/03 02:29:10;;;;;;;14.18;4.95;;;6.20;90.10;;;;;;5016329;28;20112;-75
2021/01/03 02:31:42;;;;;;;13.50;4.72;;;6.20;90.10;;;;;;5015474;28;20010;-75
2021/01/03 02:34:14;;;;;;;15.45;4.90;;;6.20;90.10;;;;;;5032850;28;20029;-75
2021/01/03 02:36:49;;;;;;;24.02;5.88;;;6.20;90.00;;;;;;5033123;28;20021;-75
2021/01/03 02:39:20;;;;;;;13.40;4.82;;;6.30;90.10;;;;;;5015592;28;20048;-75
2021/01/03 02:41:47;;;;;;;12.50;5.20;;;6.30;90.00;;;;;;5015545;28;20534;-75
2021/01/03 02:44:12;;;;;;;14.68;5.57;;;6.30;90.00;;;;;;5032251;28;20050;-76
2021/01/03 02:46:38;;;;;;;13.32;4.60;;;6.20;90.00;;;;;;5033540;28;20014;-74
2021/01/03 02:49:05;;;;;;;16.45;5.53;;;6.20;90.00;;;;;;5033596;28;20029;-76
2021/01/03 02:51:37;;;;;;;15.52;4.40;;;6.20;90.00;;;;;;5017076;28;20021;-75
2021/01/03 02:54:04;;;;;;;20.25;5.00;;;6.20;90.10;;;;;;5034631;28;20508;-75
2021/01/03 02:56:30;;;;;;;14.57;4.50;;;6.20;90.10;;;;;;5015197;28;20037;-75
2021/01/03 02:58:55;;;;;;;13.27;5.00;;;6.20;90.10;;;;;;5031938;28;20029;-75
2021/01/03 03:01:21;;;;;;;16.05;4.97;;;6.20;90.00;;;;;;5032405;28;20100;-75
2021/01/03 03:03:47;;;;;;;22.15;6.07;;;6.30;90.00;;;;;;5032821;28;20018;-75
2021/01/03 03:06:13;;;;;;;18.52;4.95;;;6.30;90.00;;;;;;5032372;28;20083;-75
2021/01/03 03:08:39;;;;;;;20.17;5.97;;;6.30;90.00;;;;;;5014990;28;20041;-75
2021/01/03 03:11:05;;;;;;;20.80;7.18;;;6.30;90.00;;;;;;5014384;28;20024;-75
2021/01/03 03:13:31;;;;;;;17.83;6.05;;;6.30;90.00;;;;;;5014962;28;20017;-75
2021/01/03 03:15:56;;;;;;;14.48;6.05;;;6.30;90.00;;;;;;5032246;28;20026;-75
2021/01/03 03:18:22;;;;;;;15.07;5.70;;;6.30;90.00;;;;;;5032555;28;20025;-75
2021/01/03 03:20:48;;;;;;;18.15;4.80;;;6.30;90.00;;;;;;5032772;28;20021;-76
2021/01/03 03:23:14;;;;;;;17.05;5.47;;;6.30;90.00;;;;;;5031603;28;20137;-75
2021/01/03 03:25:39;;;;;;;21.45;6.55;;;6.20;90.00;;;;;;5032440;28;20013;-75
2021/01/03 03:28:05;;;;;;;17.50;5.28;;;6.20;90.00;;;;;;5031474;28;20037;-76
2021/01/03 03:30:31;;;;;;;20.38;6.22;;;6.20;90.10;;;;;;5032230;28;20442;-76
2021/01/03 03:32:58;;;;;;;21.65;5.93;;;6.20;90.10;;;;;;5014133;28;20065;-76
2021/01/03 03:35:30;;;;;;;20.30;6.65;;;6.20;90.10;;;;;;5014592;28;20094;-75
2021/01/03 03:37:57;;;;;;;18.20;7.00;;;6.20;90.10;;;;;;5031513;28;20058;-75
2021/01/03 03:40:23;;;;;;;21.38;5.38;;;6.20;90.10;;;;;;5032296;28;20152;-75
2021/01/03 03:42:50;;;;;;;23.85;7.00;;;6.30;90.10;;;;;;5014350;28;20517;-75
2021/01/03 03:45:16;;;;;;;20.65;6.13;;;6.20;90.00;;;;;;5031308;28;20091;-75
2021/01/03 03:47:42;;;;;;;19.13;5.68;;;6.30;90.10;;;;;;5014337;28;20061;-75
2021/01/03 03:50:13;;;;;;;24.35;6.50;;;6.20;90.00;;;;;;5013858;28;20451;-75
2021/01/03 03:52:39;;;;;;;22.33;6.47;;;6.20;90.00;;;;;;5032118;28;20072;-75
2021/01/03 03:55:06;;;;;;;20.27;6.55;;;6.20;90.00;;;;;;5013729;28;20021;-75
2021/01/03 03:57:32;;;;;;;23.95;7.38;;;6.20;90.30;;;;;;5014404;28;20442;-75
2021/01/03 03:59:58;;;;;;;21.52;7.00;;;6.20;90.00;;;;;;5013869;28;20018;-75
2021/01/03 04:02:23;;;;;;;19.35;6.00;;;6.20;90.00;;;;;;5032328;28;20053;-74
2021/01/03 04:04:49;;;;;;;13.93;5.10;;;6.30;90.30;;;;;;5032039;28;20037;-74
2021/01/03 04:07:14;;;;;;;20.42;6.07;;;6.20;90.30;;;;;;5013811;28;20021;-74
2021/01/03 04:09:40;;;;;;;17.13;6.03;;;6.20;90.00;;;;;;5032082;28;20051;-73
2021/01/03 04:12:06;;;;;;;21.42;6.22;;;6.20;90.10;;;;;;5013725;28;20017;-75
2021/01/03 04:14:32;;;;;;;23.88;6.68;;;6.20;90.10;;;;;;5031981;28;20104;-75
2021/01/03 04:16:59;;;;;;;19.75;6.20;;;6.10;90.10;;;;;;5013544;28;20371;-75
2021/01/03 04:19:26;;;;;;;28.67;7.22;;;6.20;90.10;;;;;;5034269;28;20074;-74
2021/01/03 04:21:58;;;;;;;22.73;6.70;;;6.20;90.10;;;;;;5036065;28;20033;-75
2021/01/03 04:24:24;;;;;;;;;;;6.20;90.10;;;;;;5036149;28;20048;-75
2021/01/03 04:27:01;;;;;;;16.52;5.20;;;6.00;90.10;;;;;;5035742;28;19908;-75
2021/01/03 04:29:28;;;;;;;26.05;7.30;;;6.10;90.10;;;;;;5035528;28;20033;-76
2021/01/03 04:32:03;;;;;;;19.13;5.95;;;6.10;90.10;;;;;;5017809;28;20014;-76
2021/01/03 04:34:29;;;;;;;26.85;8.05;;;6.10;90.10;;;;;;5035782;28;20033;-75
2021/01/03 04:36:56;;;;;;;20.05;8.05;;;6.10;90.40;;;;;;5017688;28;20112;-75
2021/01/03 04:39:23;;;;;;;20.58;6.90;;;6.10;90.10;;;;;;5017322;28;20022;-76
2021/01/03 04:41:56;;;;;;;22.73;6.53;;;6.10;90.40;;;;;;5035352;28;20056;-76
2021/01/03 04:44:33;;;;;;;26.15;6.82;;;6.10;90.10;;;;;;5017639;28;20521;-75
2021/01/03 04:47:06;;;;;;;20.25;5.90;;;6.20;90.10;;;;;;5034629;28;20139;-76
2021/01/03 04:49:40;;;;;;;19.98;5.75;;;6.10;90.10;;;;;;5035300;28;20040;-76
2021/01/03 04:52:14;;;;;;;18.58;6.53;;;6.10;90.10;;;;;;5034742;28;20018;-76
2021/01/03 04:55:05;;;;;;;26.63;8.35;;;6.10;90.10;;;;;;5017333;28;20367;-76
2021/01/03 04:58:03;;;;;;;19.88;6.65;;;6.10;90.10;;;;;;5035230;28;20021;-76
2021/01/03 05:00:37;;;;;;;18.58;6.68;;;6.10;90.10;;;;;;5035291;28;20039;-75
2021/01/03 05:03:33;;;;;;;15.55;5.90;;;6.10;90.10;;;;;;5016895;28;20021;-75
2021/01/03 05:06:04;;;;;;;23.63;6.20;;;6.20;90.10;;;;;;5017801;28;20553;-82
2021/01/03 05:08:36;;;;;;;20.33;6.90;;;6.20;90.00;;;;;;5034830;28;20065;-75
2021/01/03 05:11:05;;;;;;;;;;;6.20;90.00;;;;;;5037791;28;20041;-76
2021/01/03 05:13:44;;;;;;;19.05;6.80;;;6.10;90.00;;;;;;5035090;28;20317;-75
2021/01/03 05:16:12;;;;;;;20.98;6.50;;;6.20;90.00;;;;;;5034083;28;20022;-76
2021/01/03 05:18:37;;;;;;;22.15;6.25;;;6.10;90.00;;;;;;5016923;28;20017;-75
2021/01/03 05:21:06;;;;;;;19.17;6.38;;;6.20;90.00;;;;;;5034340;28;20554;-76
2021/01/03 05:23:35;;;;;;;15.88;6.30;;;6.10;90.00;;;;;;5016997;28;20068;-75
2021/01/03 05:26:02;;;;;;;20.35;6.68;;;6.20;90.10;;;;;;5016438;28;20362;-76
2021/01/03 05:28:34;;;;;;;20.42;6.22;;;6.10;90.00;;;;;;5016687;28;20029;-75
2021/01/03 05:31:15;;;;;;;27.08;6.43;;;6.20;90.10;;;;;;5033413;28;20021;-75
2021/01/03 05:34:02;;;;;;;24.55;7.97;;;6.20;90.10;;;;;;5034552;28;20018;-75
2021/01/03 05:36:31;;;;;;;25.58;6.55;;;6.20;90.00;;;;;;5016526;28;20450;-75
2021/01/03 05:38:57;;;;;;;21.48;7.75;;;6.20;90.10;;;;;;5016666;28;20029;-75
2021/01/03 05:41:45;;;;;;;21.85;7.15;;;6.20;90.00;;;;;;5016049;28;20427;-75
2021/01/03 05:44:32;;;;;;;16.85;6.80;;;6.20;90.00;;;;;;5033169;28;20053;-75
2021/01/03 05:47:22;;;;;;;18.40;6.57;;;6.20;90.00;;;;;;5034268;28;20512;-75
2021/01/03 05:50:16;;;;;;;17.85;6.32;;;6.10;90.00;;;;;;5034032;28;20454;-75
2021/01/03 05:53:00;;;;;;;19.30;6.45;;;6.20;90.00;;;;;;5016388;28;20043;-75
2021/01/03 05:55:28;;;;;;;18.88;6.70;;;6.10;90.10;;;;;;5033726;28;20223;-75
2021/01/03 05:58:27;;;;;;;25.48;8.75;;;6.10;90.10;;;;;;5033818;28;20083;-74
2021/01/03 06:00:53;;;;;;;16.25;6.03;;;6.20;90.00;;;;;;5021799;28;20033;-74
2021/01/03 06:03:30;;;;;;;24.20;8.00;;;6.20;90.10;;;;;;5015298;28;20040;-75
2021/01/03 06:06:08;;;;;;;17.88;5.88;;;6.20;90.00;;;;;;5033899;28;20017;-75
2021/01/03 06:08:38;;;;;;;24.15;6.50;;;6.20;90.10;;;;;;5033804;28;20516;-75
2021/01/03 06:11:12;;;;;;;19.80;6.43;;;6.20;90.10;;;;;;5015963;28;20059;-82
2021/01/03 06:13:46;;;;;;;22.75;6.72;;;6.20;90.10;;;;;;5033717;28;20017;-75
2021/01/03 06:16:12;;;;;;;23.52;6.75;;;6.20;90.10;;;;;;5015653;28;20109;-75
2021/01/03 06:18:47;;;;;;;27.42;6.15;;;6.20;90.10;;;;;;5015771;28;20439;-75
2021/01/03 06:21:38;;;;;;;15.10;5.32;;;6.20;90.00;;;;;;5015328;28;20084;-75
2021/01/03 06:24:24;;;;;;;14.73;5.72;;;6.20;90.00;;;;;;5026150;28;20411;-75
2021/01/03 06:26:54;;;;;;;22.48;6.60;;;6.20;90.00;;;;;;5015619;28;20436;-76
2021/01/03 06:29:46;;;;;;;24.95;6.75;;;6.20;90.00;;;;;;5033095;28;20076;-75
2021/01/03 06:32:30;;;;;;;22.52;6.32;;;6.20;90.00;;;;;;5015158;28;20017;-75
2021/01/03 06:35:09;;;;;;;18.02;6.75;;;6.20;90.00;;;;;;5033612;28;20068;-75
2021/01/03 06:37:41;;;;;;;17.67;6.85;;;6.20;90.00;;;;;;5015383;28;20374;-75
2021/01/03 06:40:16;;;;;;;20.50;7.00;;;6.20;90.00;;;;;;5014890;28;20103;-76
2021/01/03 06:42:44;;;;;;;18.42;5.88;;;6.10;90.00;;;;;;5015110;28;20366;-75
2021/01/03 06:45:47;;;;;;;28.13;7.15;;;6.20;90.10;;;;;;5014830;28;20042;-76
2021/01/03 06:48:21;;;;;;;22.00;7.68;;;6.20;90.00;;;;;;5014687;28;20026;-75
2021/01/03 06:51:18;;;;;;;19.77;7.07;;;6.20;90.00;;;;;;5015218;28;20028;-75
2021/01/03 06:54:02;;;;;;;22.20;6.50;;;6.20;90.00;;;;;;5032903;28;20069;-75
2021/01/03 06:56:49;;;;;;;17.73;7.13;;;6.20;90.00;;;;;;5014562;28;20377;-76
2021/01/03 06:59:45;;;;;;;21.92;5.90;;;6.20;90.00;;;;;;5032447;28;20068;-75
2021/01/03 07:02:10;;;;;;;18.40;6.70;;;6.20;89.90;;;;;;5014763;28;20024;-75
2021/01/03 07:04:38;;;;;;;17.10;6.07;;;6.10;90.00;;;;;;5032893;28;20092;-73
2021/01/03 07:07:25;;;;;;;18.77;6.00;;;6.10;90.00;;;;;;5015087;28;20020;-75
2021/01/03 07:10:05;;;;;;;20.50;6.22;;;6.10;90.00;;;;;;5032660;28;20040;-74
2021/01/03 07:12:49;;;;;;;20.33;5.85;;;6.20;90.00;;;;;;5014490;28;20017;-74
2021/01/03 07:15:27;;;;;;;16.30;6.43;;;6.20;89.90;;;;;;5014594;28;20025;-74
2021/01/03 07:17:55;;;;;;;17.58;6.68;;;6.20;89.90;;;;;;5017375;28;20021;-74
2021/01/03 07:20:52;;;;;;;22.45;6.70;;;6.10;89.90;;;;;;5014972;28;20033;-75
2021/01/03 07:23:30;;;;;;;17.73;5.65;;;6.20;89.80;;;;;;5018281;28;20070;-76
2021/01/03 07:26:08;;;;;;;20.50;6.10;;;6.20;89.80;;;;;;5015729;28;20026;-76
2021/01/03 07:28:35;;;;;;;16.52;5.88;;;6.20;89.70;;;;;;5032369;28;20057;-76
2021/01/03 07:31:21;;;;;;;18.23;6.45;;;6.20;89.70;;;;;;5032150;28;20017;-76
2021/01/03 07:34:08;;;;;;;18.42;5.80;;;6.20;89.70;;;;;;5032246;28;20362;-74
2021/01/03 07:36:42;;;;;;;16.38;5.43;;;6.20;89.60;;;;;;5030365;28;20108;-75
2021/01/03 07:39:19;;;;;;;17.77;5.55;;;6.20;89.70;;;;;;5032494;28;20018;-75
2021/01/03 07:42:13;;;;;;;18.10;5.10;;;6.10;89.70;;;;;;5032452;28;20032;-77
2021/01/03 07:44:39;;;;;;;18.52;6.68;;;6.10;89.50;;;;;;5032348;28;20046;-76
2021/01/03 07:47:05;;;;;;;15.15;4.20;;;6.10;89.60;;;;;;5032622;28;20026;-75
2021/01/03 07:49:37;;;;;;;16.27;5.22;;;6.10;89.70;;;;;;5015706;28;20371;-75
2021/01/03 07:52:36;;;;;;;14.95;4.35;;;6.10;89.60;;;;;;5034404;28;20075;-74
2021/01/03 07:55:03;;;;;;;14.05;5.88;;;6.10;89.50;;;;;;4963862;28;20030;-75
2021/01/03 07:57:29;;;;;;;15.60;4.93;;;6.10;89.50;;;;;;5014048;28;20060;-74
2021/01/03 07:59:57;;;;;;;15.88;4.72;;;6.10;89.30;;;;;;5014865;28;20029;-75
2021/01/03 08:02:27;;;;;;;21.33;4.93;;;6.10;89.30;;;;;;5014153;28;20017;-74
2021/01/03 08:04:55;;;;;;;15.43;5.45;;;6.10;89.30;;;;;;5032334;28;20021;-73
2021/01/03 08:07:21;;;;;;;14.30;4.80;;;6.10;89.30;;;;;;5013698;28;20372;-75
2021/01/03 08:09:47;;;;;;;18.95;6.15;;;6.00;89.10;;;;;;5014020;28;20074;-75
2021/01/03 08:12:26;;;;;;;17.17;5.95;;;6.00;89.10;;;;;;5031532;28;20017;-82
2021/01/03 08:15:03;;;;;;;15.93;6.07;;;6.10;89.10;;;;;;5014119;28;20397;-75
2021/01/03 08:17:41;;;;;;;13.18;4.80;;;6.10;88.90;;;;;;5013431;28;20473;-76
2021/01/03 08:20:19;;;;;;;17.27;5.78;;;6.10;89.00;;;;;;5014265;28;20025;-76
2021/01/03 08:22:45;;;;;;;12.57;4.65;;;6.10;88.70;;;;;;5013963;28;20044;-76
2021/01/03 08:25:37;;;;;;;13.68;5.32;;;6.00;88.90;;;;;;5014433;28;20025;-77
2021/01/03 08:28:18;;;;;;;15.77;6.32;;;6.00;88.80;;;;;;5011125;28;20378;-76
2021/01/03 08:30:45;;;;;;;16.95;4.53;;;6.00;88.80;;;;;;5014055;28;20472;-76
2021/01/03 08:33:31;;;;;;;13.65;4.50;;;6.00;88.70;;;;;;5031764;28;20026;-76
2021/01/03 08:35:57;;;;;;;13.57;5.45;;;6.10;88.60;;;;;;5031815;28;20044;-76
2021/01/03 08:38:28;;;;;;;13.07;6.13;;;6.10;88.60;;;;;;5031199;28;20451;-75
2021/01/03 08:41:05;;;;;;;17.67;5.47;;;6.10;88.50;;;;;;5031381;28;20100;-76
2021/01/03 08:43:31;;;;;;;18.08;5.13;;;6.10;88.30;;;;;;5013368;28;20060;-76
2021/01/03 08:46:02;;;;;;;12.77;5.22;;;6.10;88.30;;;;;;5031454;28;20056;-76
2021/01/03 08:48:28;;;;;;;13.25;4.80;;;6.10;88.20;;;;;;5031011;28;20486;-76
2021/01/03 08:51:08;;;;;;;15.95;4.82;;;6.10;88.20;;;;;;5031668;28;20450;-76
2021/01/03 08:53:35;;;;;;;11.88;4.78;;;6.20;88.10;;;;;;5013280;28;20484;-76
2021/01/03 08:56:24;;;;;;;12.57;4.00;;;6.10;88.10;;;;;;5013682;28;20017;-76
2021/01/03 08:58:49;;;;;;;12.38;4.80;;;6.10;88.00;;;;;;5031391;28;20033;-75
2021/01/03 09:01:25;;;;;;;13.55;4.50;;;6.10;88.10;;;;;;5031574;28;20512;-75
2021/01/03 09:03:59;;;;;;;13.48;4.90;;;6.10;88.20;;;;;;5013768;28;20156;-75
2021/01/03 09:06:26;;;;;;;16.60;5.15;;;6.20;88.00;;;;;;5034460;28;20398;-76
2021/01/03 09:08:55;;;;;;;14.38;5.70;;;6.10;87.90;;;;;;5035603;28;20029;-75
2021/01/03 09:11:26;;;;;;;14.00;4.35;;;6.10;87.80;;;;;;5035836;28;20032;-76
2021/01/03 09:13:56;;;;;;;9.13;3.88;;;6.10;87.80;;;;;;5035714;28;20093;-76
2021/01/03 09:16:46;;;;;;;11.15;3.90;;;6.10;87.70;;;;;;5035556;28;20024;-76
2021/01/03 09:19:24;;;;;;;12.95;4.70;;;6.20;87.70;;;;;;5034458;28;20037;-75
2021/01/03 09:21:56;;;;;;;13.32;4.88;;;6.20;87.60;;;;;;5035254;28;20120;-76
2021/01/03 09:24:26;;;;;;;10.55;3.90;;;6.20;87.60;;;;;;5034443;28;20022;-75
2021/01/03 09:26:54;;;;;;;11.77;3.83;;;6.20;87.50;;;;;;5035220;28;20473;-74
2021/01/03 09:29:28;;;;;;;12.43;3.95;;;6.20;87.40;;;;;;5034300;28;20029;-75
2021/01/03 09:32:11;;;;;;;13.30;4.68;;;6.30;87.40;;;;;;5017830;28;20112;-74
2021/01/03 09:35:03;;;;;;;12.93;4.65;;;6.30;87.30;;;;;;5016454;28;20371;-74
2021/01/03 09:37:32;;;;;;;11.25;3.55;;;6.30;87.30;;;;;;5033833;28;20032;-76
2021/01/03 09:40:30;;;;;;;10.95;4.00;;;6.20;87.20;;;;;;5016535;28;20017;-74
2021/01/03 09:43:31;;;;;;;8.85;3.20;;;6.20;87.20;;;;;;5016698;28;20028;-75
2021/01/03 09:46:12;;;;;;;13.00;3.45;;;6.20;87.20;;;;;;5033927;28;20069;-75
2021/01/03 09:48:39;;;;;;;8.98;3.53;;;6.20;87.20;;;;;;5015671;28;20029;-75
2021/01/03 09:51:14;;;;;;;12.45;3.83;;;6.20;87.20;;;;;;5016435;28;20068;-75
2021/01/03 09:53:42;;;;;;;8.65;2.97;;;6.20;87.20;;;;;;5033771;28;20253;-75
2021/01/03 09:56:15;;;;;;;9.50;3.73;;;6.20;87.10;;;;;;5034364;28;20044;-76
2021/01/03 09:58:43;;;;;;;11.93;3.60;;;6.20;87.00;;;;;;5015639;28;20693;-76
2021/01/03 10:01:33;;;;;;;6.47;2.95;;;6.20;87.00;;;;;;5016126;28;20040;-76
2021/01/03 10:04:21;;;;;;;8.18;3.13;;;6.30;86.80;;;;;;5034004;28;20021;-75
2021/01/03 10:07:09;;;;;;;7.90;3.33;;;6.20;86.70;;;;;;5034230;28;20075;-75
2021/01/03 10:09:35;;;;;;;10.20;3.63;;;6.30;86.80;;;;;;5033426;28;20112;-76
2021/01/03 10:12:28;;;;;;;9.43;3.17;;;6.30;86.80;;;;;;5015910;28;20394;-76
2021/01/03 10:15:04;;;;;;;10.65;3.42;;;6.30;86.50;;;;;;5033600;28;20101;-75
2021/01/03 10:17:30;;;;;;;6.68;3.05;;;6.30;86.50;;;;;;5032398;28;20017;-76
2021/01/03 10:19:56;;;;;;;7.93;3.45;;;6.30;86.50;;;;;;5033951;28;20378;-75
2021/01/03 10:22:44;;;;;;;6.28;2.70;;;6.30;86.50;;;;;;5015685;28;20132;-83
2021/01/03 10:25:13;;;;;;;7.25;3.03;;;6.30;86.40;;;;;;5033607;28;20024;-75
2021/01/03 10:27:39;;;;;;;6.78;4.10;;;6.30;86.30;;;;;;5032968;28;20064;-75
2021/01/03 10:30:08;;;;;;;9.23;3.38;;;6.30;86.30;;;;;;5033809;28;20068;-76
2021/01/03 10:32:37;;;;;;;8.85;2.80;;;6.30;86.30;;;;;;5032690;28;20021;-76
2021/01/03 10:35:05;;;;;;;9.63;2.95;;;6.30;86.10;;;;;;5033173;28;20104;-75
2021/01/03 10:37:34;;;;;;;10.35;3.55;;;6.30;86.10;;;;;;5015051;28;20067;-76
2021/01/03 10:39:59;;;;;;;6.63;2.50;;;6.30;86.00;;;;;;5033112;28;20021;-75
2021/01/03 10:42:25;;;;;;;8.45;3.10;;;6.30;86.00;;;;;;5032799;28;20370;-76
2021/01/03 10:44:51;;;;;;;7.05;2.47;;;6.30;86.00;;;;;;5033129;28;20105;-75
2021/01/03 10:47:17;;;;;;;9.25;3.95;;;6.40;86.00;;;;;;5015424;28;20390;-75
2021/01/03 10:50:04;;;;;;;9.30;2.15;;;6.40;85.80;;;;;;5032484;28;20089;-78
2021/01/03 10:52:29;;;;;;;8.68;2.97;;;6.40;85.70;;;;;;5031936;28;20029;-77
2021/01/03 10:54:54;;;;;;;7.97;2.90;;;6.40;85.70;;;;;;5033070;28;20031;-74
2021/01/03 10:57:20;;;;;;;12.02;3.58;;;6.50;85.60;;;;;;5015141;28;20108;-75
2021/01/03 10:59:45;;;;;;;5.75;2.90;;;6.50;85.50;;;;;;5032462;28;20549;-75
2021/01/03 11:02:11;;;;;;;7.50;2.47;;;6.50;85.30;;;;;;5032743;28;20018;-75
2021/01/03 11:04:37;;;;;;;7.32;2.63;;;6.50;85.30;;;;;;5032209;28;20028;-76
2021/01/03 11:07:03;;;;;;;5.40;2.50;;;6.50;85.30;;;;;;5015217;28;20021;-75
2021/01/03 11:09:30;;;;;;;6.55;2.55;;;6.50;85.30;;;;;;5031936;28;20063;-75
2021/01/03 11:12:02;;;;;;;6.10;2.58;;;6.50;85.30;;;;;;5032321;28;20044;-75
2021/01/03 11:14:28;;;;;;;6.70;2.78;;;6.50;85.20;;;;;;5032374;28;20101;-75
2021/01/03 11:16:54;;;;;;;6.38;2.47;;;6.50;85.20;;;;;;5032476;28;20088;-75
2021/01/03 11:19:20;;;;;;;7.03;4.15;;;6.50;85.20;;;;;;5014960;28;20152;-76
2021/01/03 11:21:46;;;;;;;6.72;2.75;;;6.50;85.20;;;;;;5014212;28;20105;-75
2021/01/03 11:24:13;;;;;;;9.10;2.70;;;6.50;85.10;;;;;;5032431;28;20021;-75
2021/01/03 11:26:42;;;;;;;6.82;2.75;;;6.50;85.00;;;;;;5014107;28;20022;-78
2021/01/03 11:29:13;;;;;;;5.82;2.55;;;6.50;85.00;;;;;;5013892;28;20021;-75
2021/01/03 11:31:47;;;;;;;10.10;2.97;;;6.50;85.00;;;;;;5016218;28;20121;-75
2021/01/03 11:34:15;;;;;;;6.22;2.58;;;6.50;85.00;;;;;;5018104;28;20018;-75
2021/01/03 11:37:00;;;;;;;7.10;2.50;;;6.50;85.00;;;;;;5034689;28;20013;-75
2021/01/03 11:39:28;;;;;;;6.40;2.22;;;6.50;84.80;;;;;;5033671;28;20064;-75
2021/01/03 11:41:56;;;;;;;9.32;3.50;;;6.50;84.80;;;;;;5032782;28;20076;-76
2021/01/03 11:44:22;;;;;;;6.68;2.20;;;6.50;84.70;;;;;;5032086;28;20053;-76
2021/01/03 11:46:49;;;;;;;4.15;2.20;;;6.50;84.60;;;;;;5031878;28;20057;-75
2021/01/03 11:49:15;;;;;;;5.40;2.28;;;6.50;84.40;;;;;;5014475;28;20037;-76
2021/01/03 11:51:47;;;;;;;7.75;2.90;;;6.50;84.40;;;;;;5013886;28;20075;-76
2021/01/03 11:54:13;;;;;;;8.10;2.30;;;6.50;84.50;;;;;;5032107;28;20017;-74
2021/01/03 11:56:38;;;;;;;5.25;2.63;;;6.50;84.60;;;;;;5031527;28;20036;-76
2021/01/03 11:59:04;;;;;;;6.35;2.50;;;6.50;84.50;;;;;;5032097;28;20025;-75
2021/01/03 12:01:29;;;;;;;6.95;3.03;;;6.50;84.40;;;;;;5013878;28;20014;-82
2021/01/03 12:03:55;;;;;;;4.35;2.13;;;6.50;84.40;;;;;;5014148;28;20029;-75
2021/01/03 12:06:23;;;;;;;11.73;3.05;;;6.50;84.40;;;;;;5032112;28;20374;-75
2021/01/03 12:08:49;;;;;;;6.07;2.30;;;6.50;84.30;;;;;;5013758;28;20112;-74
2021/01/03 12:11:15;;;;;;;6.82;2.40;;;6.50;84.20;;;;;;5014356;28;20494;-75
2021/01/03 12:13:45;;;;;;;7.43;2.08;;;6.50;84.20;;;;;;5031582;28;20025;-75
2021/01/03 12:16:10;;;;;;;5.07;2.50;;;6.50;84.10;;;;;;5032181;28;20025;-75
2021/01/03 12:18:36;;;;;;;10.60;2.65;;;6.50;84.10;;;;;;5031529;28;20344;-76
2021/01/03 12:21:01;;;;;;;7.70;3.03;;;6.50;84.00;;;;;;5014189;28;20026;-75
2021/01/03 12:23:27;;;;;;;6.55;3.03;;;6.50;83.90;;;;;;5032234;28;20104;-76
2021/01/03 12:26:11;;;;;;;9.82;2.92;;;6.50;83.90;;;;;;5031821;28;20447;-74
2021/01/03 12:28:37;;;;;;;6.80;2.55;;;6.50;84.40;;;;;;5013177;28;20030;-76
2021/01/03 12:31:02;;;;;;;7.88;2.70;;;6.50;83.80;;;;;;5013874;28;20142;-77
2021/01/03 12:33:28;;;;;;;7.78;3.05;;;6.50;83.80;;;;;;5031699;28;20446;-75
2021/01/03 12:35:53;;;;;;;6.07;2.72;;;6.60;83.70;;;;;;5030539;28;20028;-75
2021/01/03 12:38:19;;;;;;;8.85;3.33;;;6.60;83.70;;;;;;5032014;28;20104;-76
2021/01/03 12:40:45;;;;;;;9.57;3.60;;;6.60;83.70;;;;;;5017007;28;20451;-75
2021/01/03 12:43:10;;;;;;;6.90;2.83;;;6.60;83.70;;;;;;5035333;28;20025;-75
2021/01/03 12:45:37;;;;;;;10.10;4.10;;;6.60;83.60;;;;;;5035018;28;20431;-74
2021/01/03 12:48:03;;;;;;;8.23;3.42;;;6.60;83.60;;;;;;5050792;28;20022;-75
2021/01/03 12:50:28;;;;;;;10.80;3.40;;;6.60;83.60;;;;;;5017481;28;20018;-75
2021/01/03 12:52:54;;;;;;;13.98;4.22;;;6.60;83.70;;;;;;5017059;28;20083;-76
2021/01/03 12:55:19;;;;;;;10.10;3.80;;;6.50;83.70;;;;;;5035459;28;20025;-75
2021/01/03 12:57:45;;;;;;;9.93;4.43;;;6.50;83.90;;;;;;5050143;28;20021;-74
2021/01/03 13:00:11;;;;;;;13.05;5.15;;;6.60;83.90;;;;;;5035298;28;20063;-75
2021/01/03 13:02:37;;;;;;;11.75;3.90;;;6.50;83.90;;;;;;5049615;28;20025;-75
2021/01/03 13:05:03;;;;;;;11.48;4.03;;;6.50;84.00;;;;;;5034873;28;20033;-75
2021/01/03 13:07:28;;;;;;;11.02;3.63;;;6.60;84.10;;;;;;5017108;28;20524;-75
2021/01/03 13:09:54;;;;;;;6.80;3.38;;;6.60;84.10;;;;;;5033996;28;20081;-75
2021/01/03 13:12:20;;;;;;;7.95;3.05;;;6.60;84.10;;;;;;5035082;28;20017;-75